Time;durP1;ratioP1;P1;durP2;ratioP2;P2;SDS_P1;SDS_P2;PMS_P1;PMS_P2;Temp;Humidity;BMP_temperature;BMP_pressure;BME280_temperature;BME280_humidity;BME280_pressure;Samples;Min_cycle;Max_cycle;Signal;HPM_P1;HPM_P2
2023/02/10 00:01:36;;;;;;;1.37;0.93;;;4.40;99.90;;;;;;5050156;28;20219;-81
2023/02/10 00:04:02;;;;;;;0.70;0.70;;;4.30;99.90;;;;;;5046038;28;20204;-81
2023/02/10 00:06:28;;;;;;;5.93;0.97;;;4.30;99.90;;;;;;5050611;28;20186;-80
2023/02/10 00:08:56;;;;;;;0.67;0.67;;;4.30;99.90;;;;;;5050229;28;20246;-81
2023/02/10 00:11:56;;;;;;;1.47;1.30;;;4.30;99.90;;;;;;5049773;28;20185;-81
2023/02/10 00:14:09;;;;;;;1.20;1.13;;;4.30;99.90;;;;;;5067705;28;20243;-80
2023/02/10 00:16:35;;;;;;;2.90;1.23;;;4.30;99.90;;;;;;5068036;28;20235;-83
2023/02/10 00:19:01;;;;;;;0.40;0.40;;;4.20;99.90;;;;;;5033316;28;20429;-82
2023/02/10 00:21:27;;;;;;;3.03;2.00;;;4.10;99.90;;;;;;5017255;28;20280;-81
2023/02/10 00:23:52;;;;;;;0.80;0.80;;;4.00;99.90;;;;;;5068104;28;20181;-82
2023/02/10 00:26:18;;;;;;;11.40;0.87;;;3.90;99.90;;;;;;5071727;28;20769;-82
2023/02/10 00:28:44;;;;;;;0.97;0.87;;;3.90;99.90;;;;;;5054303;28;20181;-82
2023/02/10 00:31:18;;;;;;;0.40;0.40;;;3.80;99.90;;;;;;5053761;28;20776;-81
2023/02/10 00:33:44;;;;;;;0.53;0.53;;;3.80;99.90;;;;;;5053953;28;20219;-83
2023/02/10 00:36:12;;;;;;;0.97;0.97;;;3.80;99.90;;;;;;5053886;28;20189;-81
2023/02/10 00:38:39;;;;;;;0.33;0.33;;;3.80;99.90;;;;;;5053823;28;20182;-81
2023/02/10 00:41:10;;;;;;;1.10;1.10;;;3.80;99.90;;;;;;5037432;28;20205;-84
2023/02/10 00:43:39;;;;;;;0.50;0.50;;;3.90;99.90;;;;;;5053868;28;20166;-82
2023/02/10 00:46:06;;;;;;;1.10;1.10;;;3.90;99.90;;;;;;5053453;28;20199;-82
2023/02/10 00:48:32;;;;;;;0.60;0.60;;;3.90;99.90;;;;;;5071971;28;20201;-81
2023/02/10 00:50:58;;;;;;;4.90;1.30;;;3.90;99.90;;;;;;5053854;28;20182;-81
2023/02/10 00:53:24;;;;;;;0.70;0.70;;;3.90;99.90;;;;;;5020634;28;20180;-83
2023/02/10 00:55:50;;;;;;;10.63;1.40;;;4.00;99.90;;;;;;5053735;28;20671;-81
2023/02/10 00:58:16;;;;;;;1.63;1.43;;;4.10;99.90;;;;;;5053701;28;20188;-81
2023/02/10 01:00:42;;;;;;;0.40;0.40;;;4.10;99.90;;;;;;5071583;28;20530;-81
2023/02/10 01:03:08;;;;;;;1.47;1.37;;;4.10;99.90;;;;;;5036843;28;20328;-82
2023/02/10 01:05:33;;;;;;;4.83;0.97;;;4.10;99.90;;;;;;5053140;28;20283;-85
2023/02/10 01:07:59;;;;;;;1.77;1.70;;;4.00;99.90;;;;;;5036734;28;20185;-81
2023/02/10 01:10:25;;;;;;;0.77;0.70;;;4.00;99.90;;;;;;5020450;28;20185;-81
2023/02/10 01:12:51;;;;;;;0.70;0.70;;;4.10;99.90;;;;;;5053520;28;20185;-85
2023/02/10 01:15:16;;;;;;;0.37;0.37;;;4.10;99.90;;;;;;5036622;28;20694;-82
2023/02/10 01:17:42;;;;;;;2.93;1.17;;;3.90;99.90;;;;;;5053486;28;20235;-81
2023/02/10 01:20:08;;;;;;;1.83;1.13;;;3.80;99.90;;;;;;5071198;28;20181;-82
2023/02/10 01:22:35;;;;;;;0.37;0.37;;;3.70;99.90;;;;;;5036822;28;20209;-81
2023/02/10 01:25:01;;;;;;;2.00;0.97;;;3.70;99.90;;;;;;5053132;28;20185;-81
2023/02/10 01:27:27;;;;;;;2.47;2.23;;;3.60;99.90;;;;;;5071112;28;20192;-81
2023/02/10 01:29:53;;;;;;;0.40;0.40;;;3.60;99.90;;;;;;5020192;28;20177;-81
2023/02/10 01:32:18;;;;;;;11.23;3.07;;;3.60;99.90;;;;;;5053101;28;20218;-84
2023/02/10 01:34:44;;;;;;;0.93;0.93;;;3.60;99.90;;;;;;5070512;28;20561;-84
2023/02/10 01:37:10;;;;;;;0.30;0.30;;;3.50;99.90;;;;;;5035775;28;20188;-82
2023/02/10 01:39:36;;;;;;;1.27;0.73;;;3.40;99.90;;;;;;5052973;28;20715;-81
2023/02/10 01:42:02;;;;;;;0.60;0.60;;;3.30;99.90;;;;;;5070209;28;20200;-86
2023/02/10 01:44:28;;;;;;;0.47;0.47;;;3.10;99.90;;;;;;5052991;28;20246;-84
2023/02/10 01:46:55;;;;;;;0.60;0.60;;;3.10;99.90;;;;;;5070541;28;20182;-83
2023/02/10 01:49:25;;;;;;;0.40;0.40;;;3.20;99.90;;;;;;5052808;28;20268;-83
2023/02/10 01:52:06;;;;;;;0.47;0.47;;;3.30;99.90;;;;;;5052904;28;20201;-84
2023/02/10 01:54:43;;;;;;;6.13;1.47;;;3.40;99.90;;;;;;5052224;28;20224;-85
2023/02/10 01:57:08;;;;;;;0.70;0.70;;;3.50;99.90;;;;;;5052585;28;20162;-85
2023/02/10 01:59:37;;;;;;;2.07;1.90;;;3.40;99.90;;;;;;5070453;28;20193;-81
2023/02/10 02:02:06;;;;;;;6.50;1.33;;;3.30;99.90;;;;;;5070207;28;20182;-82
2023/02/10 02:04:46;;;;;;;1.33;0.50;;;3.30;99.90;;;;;;5036573;28;20285;-82
2023/02/10 02:07:12;;;;;;;0.60;0.60;;;3.40;99.90;;;;;;5052203;28;20212;-81
2023/02/10 02:09:38;;;;;;;0.83;0.83;;;3.50;99.90;;;;;;5070362;28;20205;-82
2023/02/10 02:12:32;;;;;;;2.03;1.93;;;3.60;99.90;;;;;;5019180;28;20177;-85
2023/02/10 02:15:06;;;;;;;0.93;0.83;;;3.50;99.90;;;;;;5069408;28;20236;-85
2023/02/10 02:17:56;;;;;;;0.37;0.37;;;3.40;99.90;;;;;;5052151;28;20529;-84
2023/02/10 02:20:50;;;;;;;0.33;0.33;;;3.40;99.90;;;;;;5051988;28;20181;-83
2023/02/10 02:23:20;;;;;;;1.10;1.03;;;3.40;99.90;;;;;;5052113;28;20173;-82
2023/02/10 02:25:56;;;;;;;0.80;0.80;;;3.50;99.90;;;;;;5069825;28;20182;-86
2023/02/10 02:28:47;;;;;;;0.87;0.87;;;3.70;99.90;;;;;;5069699;28;20162;-85
2023/02/10 02:31:35;;;;;;;6.37;0.60;;;3.80;99.90;;;;;;5051780;28;20235;-84
2023/02/10 02:34:28;;;;;;;1.70;1.60;;;3.80;99.90;;;;;;5051931;28;20252;-81
2023/02/10 02:37:12;;;;;;;0.50;0.50;;;3.80;99.90;;;;;;5051720;28;20162;-84
2023/02/10 02:39:40;;;;;;;0.27;0.27;;;3.60;99.90;;;;;;5069763;28;20174;-83
2023/02/10 02:42:17;;;;;;;0.30;0.30;;;3.50;99.90;;;;;;5051434;28;20177;-82
2023/02/10 02:44:46;;;;;;;2.03;0.40;;;3.30;99.90;;;;;;5069509;28;20173;-83
2023/02/10 02:47:40;;;;;;;0.57;0.57;;;3.30;99.90;;;;;;5069038;28;20178;-85
2023/02/10 02:50:22;;;;;;;0.37;0.37;;;3.30;99.90;;;;;;5069227;28;20181;-86
2023/02/10 02:52:58;;;;;;;3.03;0.83;;;3.40;99.90;;;;;;5051480;28;20736;-81
2023/02/10 02:55:27;;;;;;;0.40;0.40;;;3.40;99.90;;;;;;5051332;28;20197;-81
2023/02/10 02:58:28;;;;;;;1.90;1.80;;;3.60;99.90;;;;;;5069033;28;20189;-83
2023/02/10 03:01:04;;;;;;;1.50;1.10;;;3.70;99.90;;;;;;5047459;28;20188;-81
2023/02/10 03:03:33;;;;;;;0.63;0.63;;;3.70;99.90;;;;;;5051459;28;20169;-81
2023/02/10 03:06:00;;;;;;;0.97;0.97;;;3.60;99.90;;;;;;5050851;28;20182;-82
2023/02/10 03:08:26;;;;;;;0.70;0.70;;;3.60;99.90;;;;;;5051139;28;20181;-82
2023/02/10 03:10:52;;;;;;;0.50;0.50;;;3.50;99.90;;;;;;5051283;28;20184;-81
2023/02/10 03:13:18;;;;;;;0.87;0.50;;;3.50;99.90;;;;;;5034352;28;20182;-83
2023/02/10 03:15:44;;;;;;;0.50;0.50;;;3.60;99.90;;;;;;5050516;28;20233;-85
2023/02/10 03:18:10;;;;;;;1.13;0.87;;;3.60;99.90;;;;;;5051067;28;20197;-84
2023/02/10 03:20:35;;;;;;;2.40;2.13;;;3.60;99.90;;;;;;5017928;28;20177;-81
2023/02/10 03:23:01;;;;;;;0.47;0.47;;;3.70;99.90;;;;;;5034243;28;20181;-81
2023/02/10 03:25:27;;;;;;;1.53;1.43;;;3.80;99.90;;;;;;5034349;28;20551;-84
2023/02/10 03:27:53;;;;;;;0.47;0.47;;;3.90;99.90;;;;;;5034330;28;20205;-82
2023/02/10 03:30:18;;;;;;;0.77;0.50;;;3.90;99.90;;;;;;5033892;28;20554;-82
2023/02/10 03:32:46;;;;;;;4.20;3.13;;;4.00;99.90;;;;;;5034281;28;20188;-83
2023/02/10 03:35:12;;;;;;;2.10;1.90;;;4.20;99.90;;;;;;5050826;28;20225;-82
2023/02/10 03:37:37;;;;;;;0.70;0.70;;;4.10;99.90;;;;;;5050750;28;20212;-82
2023/02/10 03:40:03;;;;;;;0.90;0.90;;;3.90;99.90;;;;;;5033664;28;20235;-81
2023/02/10 03:42:29;;;;;;;1.43;1.37;;;3.60;99.90;;;;;;5050752;28;20471;-81
2023/02/10 03:44:55;;;;;;;3.60;1.97;;;3.50;99.90;;;;;;5033960;28;20177;-81
2023/02/10 03:47:21;;;;;;;1.07;1.07;;;3.40;99.90;;;;;;5068061;28;20182;-81
2023/02/10 03:49:46;;;;;;;0.90;0.90;;;3.40;99.90;;;;;;5068304;28;20413;-82
2023/02/10 03:52:12;;;;;;;1.80;1.70;;;3.30;99.90;;;;;;5033689;28;20651;-81
2023/02/10 03:54:38;;;;;;;0.53;0.53;;;3.30;99.90;;;;;;5068124;28;20316;-86
2023/02/10 03:57:05;;;;;;;0.53;0.53;;;3.20;99.90;;;;;;5050274;28;20178;-82
2023/02/10 03:59:31;;;;;;;1.60;1.07;;;3.20;99.90;;;;;;5017157;28;20180;-81
2023/02/10 04:01:57;;;;;;;1.40;1.30;;;3.10;99.90;;;;;;5050435;28;20275;-86
2023/02/10 04:04:23;;;;;;;1.57;1.47;;;3.00;99.90;;;;;;5017218;28;20277;-82
2023/02/10 04:06:49;;;;;;;0.83;0.83;;;3.10;99.90;;;;;;5068348;28;20594;-81
2023/02/10 04:09:14;;;;;;;0.60;0.60;;;3.20;99.90;;;;;;5033420;28;20177;-86
2023/02/10 04:11:40;;;;;;;0.63;0.63;;;3.30;99.90;;;;;;5050314;28;20552;-83
2023/02/10 04:14:06;;;;;;;1.67;1.57;;;3.30;99.90;;;;;;5033305;28;20730;-82
2023/02/10 04:16:33;;;;;;;0.67;0.57;;;3.30;99.90;;;;;;5016996;28;20254;-81
2023/02/10 04:18:59;;;;;;;0.97;0.93;;;3.20;99.90;;;;;;5017521;28;20201;-81
2023/02/10 04:21:25;;;;;;;2.93;1.33;;;3.30;99.90;;;;;;5050181;28;20190;-84
2023/02/10 04:23:51;;;;;;;0.83;0.83;;;3.30;99.90;;;;;;5049836;28;20650;-85
2023/02/10 04:26:17;;;;;;;0.40;0.40;;;3.40;99.90;;;;;;5049953;28;20329;-86
2023/02/10 04:28:43;;;;;;;3.07;0.77;;;3.30;99.90;;;;;;5033824;28;20183;-81
2023/02/10 04:31:09;;;;;;;0.57;0.57;;;3.30;99.90;;;;;;5033412;28;20273;-83
2023/02/10 04:33:36;;;;;;;0.53;0.53;;;3.30;99.90;;;;;;5050111;28;20174;-87
2023/02/10 04:36:02;;;;;;;0.60;0.60;;;3.30;99.90;;;;;;5050020;28;20729;-82
2023/02/10 04:38:28;;;;;;;4.07;3.77;;;3.30;99.90;;;;;;5049812;28;20272;-83
2023/02/10 04:40:57;;;;;;;0.87;0.87;;;3.30;99.90;;;;;;5050185;28;20412;-82
2023/02/10 04:43:22;;;;;;;0.33;0.33;;;3.30;99.90;;;;;;5050144;28;20188;-83
2023/02/10 04:45:48;;;;;;;1.50;1.50;;;3.30;99.90;;;;;;5067535;28;20577;-83
2023/02/10 04:48:14;;;;;;;3.13;0.60;;;3.20;99.90;;;;;;5016961;28;20189;-82
2023/02/10 04:50:40;;;;;;;0.67;0.67;;;3.20;99.90;;;;;;5016966;28;20174;-81
2023/02/10 04:53:06;;;;;;;2.73;2.20;;;3.20;99.90;;;;;;5049713;28;20177;-86
2023/02/10 04:55:32;;;;;;;5.97;1.70;;;3.20;99.90;;;;;;5049575;28;20670;-84
2023/02/10 04:57:58;;;;;;;0.90;0.90;;;3.20;99.90;;;;;;5033181;28;20243;-85
2023/02/10 05:00:24;;;;;;;1.10;1.10;;;3.20;99.90;;;;;;5049629;28;20347;-81
2023/02/10 05:02:50;;;;;;;0.20;0.20;;;3.20;99.90;;;;;;5033091;28;20582;-81
2023/02/10 05:05:16;;;;;;;0.80;0.80;;;3.20;99.90;;;;;;5049378;28;20262;-82
2023/02/10 05:07:41;;;;;;;1.27;1.17;;;3.30;99.90;;;;;;5049752;28;20239;-81
2023/02/10 05:10:07;;;;;;;1.00;0.80;;;3.30;99.90;;;;;;5050402;28;20269;-81
2023/02/10 05:12:33;;;;;;;1.50;1.23;;;3.40;99.90;;;;;;5037047;28;20181;-82
2023/02/10 05:14:59;;;;;;;7.60;2.20;;;3.40;99.90;;;;;;5053173;28;20603;-81
2023/02/10 05:17:25;;;;;;;0.60;0.53;;;3.40;99.90;;;;;;5071241;28;20367;-81
2023/02/10 05:19:50;;;;;;;0.60;0.60;;;3.50;99.90;;;;;;5053595;28;20266;-82
2023/02/10 05:22:16;;;;;;;0.70;0.70;;;3.40;99.90;;;;;;5052884;28;20185;-82
2023/02/10 05:24:42;;;;;;;2.97;2.77;;;3.50;99.90;;;;;;5036674;28;20271;-81
2023/02/10 05:27:08;;;;;;;1.63;1.63;;;3.40;99.90;;;;;;5036499;28;20192;-81
2023/02/10 05:29:34;;;;;;;2.53;1.10;;;3.40;99.90;;;;;;5036464;28;20651;-85
2023/02/10 05:31:59;;;;;;;0.40;0.40;;;3.40;99.90;;;;;;5036675;28;20708;-81
2023/02/10 05:34:26;;;;;;;1.00;0.50;;;3.50;99.90;;;;;;5036320;28;20209;-82
2023/02/10 05:36:52;;;;;;;0.40;0.40;;;3.40;99.90;;;;;;5036395;28;20186;-85
2023/02/10 05:39:23;;;;;;;1.20;0.90;;;3.50;99.90;;;;;;5036379;28;20188;-82
2023/02/10 05:41:55;;;;;;;2.17;2.00;;;3.50;99.90;;;;;;5053722;28;20728;-81
2023/02/10 05:44:22;;;;;;;1.13;1.07;;;3.50;99.90;;;;;;5052941;28;20174;-81
2023/02/10 05:46:49;;;;;;;0.87;0.80;;;3.40;99.90;;;;;;5053166;28;20204;-84
2023/02/10 05:49:15;;;;;;;0.67;0.67;;;3.40;99.90;;;;;;5052552;28;20176;-84
2023/02/10 05:51:41;;;;;;;1.10;1.03;;;3.40;99.90;;;;;;5036108;28;20769;-83
2023/02/10 05:54:07;;;;;;;3.73;0.97;;;3.30;99.90;;;;;;5070532;28;20181;-81
2023/02/10 05:56:33;;;;;;;0.63;0.63;;;3.40;99.90;;;;;;5070221;28;20182;-81
2023/02/10 05:58:59;;;;;;;1.17;1.17;;;3.40;99.90;;;;;;5036337;28;20227;-81
2023/02/10 06:01:24;;;;;;;1.53;1.53;;;3.40;99.90;;;;;;5035722;28;20643;-81
2023/02/10 06:03:50;;;;;;;1.77;1.67;;;3.40;99.90;;;;;;5052802;28;20223;-84
2023/02/10 06:06:16;;;;;;;2.10;1.93;;;3.50;99.90;;;;;;5035663;28;20178;-81
2023/02/10 06:08:42;;;;;;;8.40;1.23;;;3.50;99.90;;;;;;5035973;28;20444;-81
2023/02/10 06:11:08;;;;;;;0.93;0.80;;;3.50;99.90;;;;;;5052481;28;20234;-83
2023/02/10 06:13:35;;;;;;;3.60;2.67;;;3.50;99.90;;;;;;5069974;28;20190;-79
2023/02/10 06:16:01;;;;;;;2.67;1.90;;;3.50;99.90;;;;;;5069861;28;20213;-81
2023/02/10 06:18:28;;;;;;;3.33;1.40;;;3.50;99.90;;;;;;5019007;28;20246;-81
2023/02/10 06:20:54;;;;;;;2.00;1.90;;;3.50;99.90;;;;;;5035527;28;20276;-82
2023/02/10 06:23:20;;;;;;;1.83;1.73;;;3.60;99.90;;;;;;5051308;28;20706;-85
2023/02/10 06:25:46;;;;;;;1.27;1.20;;;3.60;99.90;;;;;;5070027;28;20185;-83
2023/02/10 06:28:14;;;;;;;10.60;1.47;;;3.60;99.90;;;;;;5035485;28;20206;-81
2023/02/10 06:30:42;;;;;;;1.70;0.87;;;3.70;99.90;;;;;;5069654;28;20254;-81
2023/02/10 06:33:08;;;;;;;4.57;1.57;;;3.70;99.90;;;;;;5034862;28;20376;-86
2023/02/10 06:35:34;;;;;;;7.23;3.03;;;3.80;99.90;;;;;;5052290;28;20233;-81
2023/02/10 06:37:59;;;;;;;5.40;1.20;;;3.80;99.90;;;;;;5052076;28;20193;-81
2023/02/10 06:40:25;;;;;;;2.07;1.40;;;3.90;99.90;;;;;;5035012;28;20184;-81
2023/02/10 06:42:51;;;;;;;7.20;0.87;;;3.80;99.90;;;;;;5069406;28;20742;-84
2023/02/10 06:45:17;;;;;;;2.77;2.57;;;3.80;99.90;;;;;;5034995;28;20208;-81
2023/02/10 06:47:43;;;;;;;2.30;2.10;;;3.80;99.90;;;;;;5035038;28;20553;-80
2023/02/10 06:50:09;;;;;;;2.30;2.20;;;3.80;99.90;;;;;;5034896;28;20623;-80
2023/02/10 06:52:37;;;;;;;1.33;1.33;;;3.80;99.90;;;;;;5069719;28;20275;-81
2023/02/10 06:55:05;;;;;;;2.53;2.40;;;3.90;99.90;;;;;;5035036;28;20212;-81
2023/02/10 06:57:32;;;;;;;4.57;4.27;;;3.80;99.90;;;;;;5068929;28;20207;-83
2023/02/10 06:59:58;;;;;;;5.80;2.93;;;3.90;99.90;;;;;;5051839;28;20189;-83
2023/02/10 07:02:24;;;;;;;4.27;3.33;;;3.90;99.90;;;;;;5034726;28;20280;-85
2023/02/10 07:04:50;;;;;;;22.07;4.17;;;3.90;99.90;;;;;;5050776;28;20724;-85
2023/02/10 07:07:16;;;;;;;19.27;4.07;;;4.00;99.90;;;;;;5033211;28;20181;-81
2023/02/10 07:09:42;;;;;;;6.10;5.17;;;4.10;99.90;;;;;;5050790;28;20189;-86
2023/02/10 07:12:07;;;;;;;5.37;4.93;;;4.00;99.90;;;;;;5050559;28;20186;-80
2023/02/10 07:14:34;;;;;;;4.70;3.67;;;4.00;99.90;;;;;;5050065;28;20840;-85
2023/02/10 07:17:00;;;;;;;10.93;7.33;;;4.00;99.90;;;;;;5051280;28;20181;-80
2023/02/10 07:19:26;;;;;;;3.60;1.90;;;4.00;99.90;;;;;;5068544;28;20605;-83
2023/02/10 07:21:52;;;;;;;2.00;1.47;;;3.90;99.90;;;;;;5068554;28;20190;-80
2023/02/10 07:24:18;;;;;;;1.80;0.73;;;3.90;99.90;;;;;;5050377;28;20185;-83
2023/02/10 07:26:43;;;;;;;2.17;2.13;;;4.00;99.90;;;;;;5050437;28;20619;-80
2023/02/10 07:29:09;;;;;;;4.17;2.63;;;4.00;99.90;;;;;;5017603;28;20223;-83
2023/02/10 07:31:36;;;;;;;5.30;2.00;;;4.00;99.90;;;;;;5050618;28;20215;-81
2023/02/10 07:34:02;;;;;;;3.00;1.17;;;4.10;99.90;;;;;;5049380;28;20639;-81
2023/02/10 07:36:28;;;;;;;1.43;1.30;;;4.20;99.90;;;;;;5033792;28;20181;-80
2023/02/10 07:38:54;;;;;;;5.83;2.50;;;4.20;99.90;;;;;;5034296;28;20226;-80
2023/02/10 07:41:19;;;;;;;0.63;0.63;;;4.20;99.90;;;;;;5050316;28;20665;-80
2023/02/10 07:43:45;;;;;;;1.43;1.43;;;4.20;99.90;;;;;;5017820;28;20222;-82
2023/02/10 07:46:11;;;;;;;2.87;2.63;;;4.30;99.90;;;;;;5068616;28;20212;-80
2023/02/10 07:48:37;;;;;;;3.27;2.97;;;4.30;99.90;;;;;;5033478;28;20178;-80
2023/02/10 07:51:05;;;;;;;11.17;2.27;;;4.40;99.90;;;;;;5034603;28;20481;-80
2023/02/10 07:53:31;;;;;;;5.97;1.30;;;4.40;99.90;;;;;;5033322;28;20718;-80
2023/02/10 07:56:00;;;;;;;1.87;1.70;;;4.30;99.90;;;;;;5050136;28;20308;-80
2023/02/10 07:58:26;;;;;;;0.83;0.83;;;4.40;99.90;;;;;;5050015;28;20181;-81
2023/02/10 08:00:52;;;;;;;1.17;1.17;;;4.40;99.90;;;;;;5067875;28;20439;-80
2023/02/10 08:03:17;;;;;;;0.77;0.77;;;4.50;99.90;;;;;;5068366;28;20188;-83
2023/02/10 08:05:43;;;;;;;2.57;1.80;;;4.50;99.90;;;;;;5050279;28;20181;-83
2023/02/10 08:08:10;;;;;;;0.70;0.70;;;4.60;99.90;;;;;;5033890;28;20178;-81
2023/02/10 08:10:37;;;;;;;27.50;3.30;;;4.60;99.90;;;;;;5050431;28;20275;-80
2023/02/10 08:13:03;;;;;;;14.87;3.20;;;4.70;99.90;;;;;;5068205;28;20255;-81
2023/02/10 08:15:29;;;;;;;3.37;2.50;;;4.70;99.90;;;;;;5016579;28;20229;-84
2023/02/10 08:17:55;;;;;;;1.87;1.77;;;4.80;99.90;;;;;;5049834;28;20185;-80
2023/02/10 08:20:20;;;;;;;3.13;2.93;;;4.80;99.90;;;;;;5033407;28;20538;-81
2023/02/10 08:22:46;;;;;;;3.03;2.77;;;4.80;99.90;;;;;;5049845;28;20244;-81
2023/02/10 08:25:12;;;;;;;3.70;2.63;;;5.00;99.90;;;;;;5033514;28;20242;-81
2023/02/10 08:27:37;;;;;;;2.97;2.30;;;4.90;99.90;;;;;;5067511;28;20196;-81
2023/02/10 08:30:05;;;;;;;1.10;1.00;;;4.90;99.90;;;;;;5049800;28;20643;-80
2023/02/10 08:32:31;;;;;;;0.70;0.70;;;5.00;99.90;;;;;;5067737;28;20239;-80
2023/02/10 08:34:57;;;;;;;2.70;2.50;;;5.00;99.90;;;;;;5033252;28;20213;-81
2023/02/10 08:37:23;;;;;;;1.13;1.13;;;5.00;99.90;;;;;;5049737;28;20174;-85
2023/02/10 08:39:48;;;;;;;2.40;1.77;;;5.00;99.90;;;;;;5049799;28;20669;-82
2023/02/10 08:42:14;;;;;;;1.87;1.77;;;5.10;99.90;;;;;;5033379;28;20252;-80
2023/02/10 08:44:40;;;;;;;7.97;2.80;;;5.20;99.90;;;;;;5033346;28;20216;-80
2023/02/10 08:47:06;;;;;;;1.83;1.73;;;5.30;99.90;;;;;;5036960;28;20177;-80
2023/02/10 08:49:32;;;;;;;7.73;2.03;;;5.70;99.90;;;;;;5072109;28;20189;-80
2023/02/10 08:51:57;;;;;;;2.50;2.07;;;6.10;99.90;;;;;;5053707;28;20185;-80
2023/02/10 08:54:23;;;;;;;6.83;2.87;;;6.20;99.90;;;;;;5037088;28;20300;-81
2023/02/10 08:56:53;;;;;;;4.23;2.77;;;6.40;99.90;;;;;;5053799;28;20181;-80
2023/02/10 08:59:19;;;;;;;2.83;2.27;;;6.20;99.90;;;;;;5071482;28;20178;-82
2023/02/10 09:01:45;;;;;;;4.17;2.33;;;6.00;99.90;;;;;;5071352;28;20178;-81
2023/02/10 09:04:11;;;;;;;2.10;2.00;;;6.00;99.90;;;;;;5036903;28;20268;-80
2023/02/10 09:06:41;;;;;;;2.07;1.93;;;6.10;99.90;;;;;;5071351;28;20536;-81
2023/02/10 09:09:12;;;;;;;2.50;1.07;;;6.20;99.90;;;;;;5070924;28;20183;-80
2023/02/10 09:11:38;;;;;;;1.77;1.60;;;6.20;99.90;;;;;;5068800;28;20460;-85
2023/02/10 09:14:04;;;;;;;1.63;1.53;;;6.30;99.90;;;;;;5052694;28;20636;-82
2023/02/10 09:16:30;;;;;;;1.10;1.10;;;6.20;99.90;;;;;;5052743;28;20269;-83
2023/02/10 09:18:55;;;;;;;1.70;1.60;;;6.30;99.90;;;;;;5053134;28;20189;-79
2023/02/10 09:21:21;;;;;;;18.37;5.20;;;6.40;99.90;;;;;;5019943;28;20596;-84
2023/02/10 09:23:47;;;;;;;2.60;2.40;;;6.50;99.90;;;;;;5052807;28;20674;-80
2023/02/10 09:26:13;;;;;;;2.07;1.17;;;6.60;99.90;;;;;;5019882;28;20587;-83
2023/02/10 09:28:39;;;;;;;3.03;2.73;;;6.60;99.90;;;;;;5052766;28;20182;-84
2023/02/10 09:31:07;;;;;;;2.27;2.07;;;6.60;99.90;;;;;;5036018;28;20177;-85
2023/02/10 09:33:33;;;;;;;9.90;4.87;;;6.60;99.90;;;;;;5070273;28;20638;-79
2023/02/10 09:35:59;;;;;;;1.30;1.30;;;6.80;99.90;;;;;;5070680;28;20433;-79
2023/02/10 09:38:25;;;;;;;3.10;1.90;;;6.90;99.90;;;;;;5052223;28;20242;-80
2023/02/10 09:40:51;;;;;;;2.33;2.20;;;6.90;99.90;;;;;;5052504;28;20186;-85
2023/02/10 09:43:48;;;;;;;3.63;1.80;;;7.00;99.90;;;;;;5052380;28;20280;-79
2023/02/10 09:46:30;;;;;;;1.20;1.20;;;7.10;99.90;;;;;;5070394;28;20649;-79
2023/02/10 09:49:06;;;;;;;4.37;3.10;;;7.00;99.90;;;;;;5070176;28;20627;-79
2023/02/10 09:51:53;;;;;;;8.80;2.60;;;7.10;99.90;;;;;;5052229;28;20642;-80
2023/02/10 09:54:19;;;;;;;2.43;2.23;;;7.00;99.90;;;;;;5052107;28;20215;-84
2023/02/10 09:56:46;;;;;;;1.90;1.80;;;7.10;99.90;;;;;;5034812;28;20181;-79
2023/02/10 09:59:17;;;;;;;5.97;1.30;;;7.20;99.90;;;;;;5070054;28;20169;-80
2023/02/10 10:01:48;;;;;;;8.90;4.07;;;7.20;99.90;;;;;;5052176;28;20503;-80
2023/02/10 10:04:17;;;;;;;1.87;1.77;;;7.30;99.90;;;;;;5052380;28;20575;-80
2023/02/10 10:06:46;;;;;;;7.30;2.40;;;7.40;99.90;;;;;;5070176;28;20173;-85
2023/02/10 10:09:37;;;;;;;5.83;2.33;;;7.40;99.90;;;;;;5070067;28;20176;-82
2023/02/10 10:12:03;;;;;;;1.43;1.13;;;7.70;99.90;;;;;;5069954;28;20215;-81
2023/02/10 10:14:34;;;;;;;3.50;2.40;;;7.70;99.90;;;;;;5069471;28;20314;-82
2023/02/10 10:17:19;;;;;;;4.37;2.87;;;7.80;99.90;;;;;;5052175;28;20615;-84
2023/02/10 10:20:16;;;;;;;7.33;3.23;;;7.80;99.90;;;;;;5069543;28;20234;-80
2023/02/10 10:23:06;;;;;;;5.00;1.70;;;7.80;99.90;;;;;;5069228;28;20173;-82
2023/02/10 10:25:57;;;;;;;3.90;2.20;;;7.80;99.90;;;;;;5051514;28;20632;-80
2023/02/10 10:28:34;;;;;;;2.83;2.63;;;8.00;99.90;;;;;;5051463;28;20224;-79
2023/02/10 10:31:15;;;;;;;6.40;2.07;;;8.00;99.90;;;;;;5051390;28;20180;-81
2023/02/10 10:34:22;;;;;;;4.83;1.80;;;8.10;99.90;;;;;;5069174;28;20528;-82
2023/02/10 10:36:52;;;;;;;3.00;1.43;;;8.20;99.90;;;;;;5064049;28;20301;-83
2023/02/10 10:39:31;;;;;;;9.63;2.83;;;8.20;99.90;;;;;;5069363;28;20189;-80
2023/02/10 10:42:01;;;;;;;5.13;1.87;;;8.20;99.90;;;;;;5051234;28;20166;-79
2023/02/10 10:44:29;;;;;;;4.30;1.93;;;8.30;99.90;;;;;;5051239;28;20186;-80
2023/02/10 10:47:09;;;;;;;9.10;1.30;;;8.20;99.90;;;;;;5034595;28;20209;-79
2023/02/10 10:49:38;;;;;;;4.07;1.37;;;8.30;99.90;;;;;;5069171;28;20166;-80
2023/02/10 10:52:22;;;;;;;3.50;0.93;;;8.30;99.90;;;;;;5069080;28;20202;-80
2023/02/10 10:54:47;;;;;;;1.13;1.10;;;8.30;99.90;;;;;;5051051;28;20294;-81
2023/02/10 10:57:17;;;;;;;6.90;1.90;;;8.30;99.90;;;;;;5051182;28;20177;-80
2023/02/10 10:59:48;;;;;;;4.03;2.40;;;8.30;99.90;;;;;;5068781;28;20185;-80
2023/02/10 11:02:24;;;;;;;2.17;0.93;;;8.40;99.90;;;;;;5050797;28;20380;-78
2023/02/10 11:05:09;;;;;;;7.97;1.90;;;8.50;99.90;;;;;;5050580;28;20172;-79
2023/02/10 11:07:36;;;;;;;9.80;1.43;;;8.50;99.90;;;;;;5050686;28;20645;-79
2023/02/10 11:10:03;;;;;;;3.17;2.97;;;8.60;99.90;;;;;;5068300;28;20276;-78
2023/02/10 11:12:40;;;;;;;14.43;1.50;;;8.70;99.90;;;;;;5050616;28;20297;-81
2023/02/10 11:15:30;;;;;;;10.20;0.87;;;8.70;99.90;;;;;;5030284;28;20240;-79
2023/02/10 11:17:58;;;;;;;6.00;1.47;;;8.80;99.90;;;;;;5047258;28;20185;-78
2023/02/10 11:20:30;;;;;;;2.47;1.33;;;8.90;99.90;;;;;;5048273;28;20198;-79
2023/02/10 11:22:59;;;;;;;1.50;1.30;;;8.90;99.90;;;;;;5048419;28;20697;-79
2023/02/10 11:25:32;;;;;;;1.37;0.63;;;9.10;99.90;;;;;;5048384;28;20255;-81
2023/02/10 11:28:00;;;;;;;1.53;1.27;;;9.10;99.90;;;;;;5048421;28;20180;-77
2023/02/10 11:30:30;;;;;;;9.20;0.57;;;9.10;99.90;;;;;;5046977;28;20174;-79
2023/02/10 11:32:57;;;;;;;7.23;0.70;;;9.20;99.90;;;;;;5046564;28;20671;-78
2023/02/10 11:35:24;;;;;;;11.43;1.67;;;9.30;99.90;;;;;;5048145;28;20248;-80
2023/02/10 11:37:54;;;;;;;2.97;0.97;;;9.50;99.90;;;;;;5046922;28;20186;-79
2023/02/10 11:40:26;;;;;;;5.30;1.10;;;9.50;99.90;;;;;;5047883;28;20636;-80
2023/02/10 11:42:56;;;;;;;1.53;0.93;;;9.60;99.90;;;;;;5048070;28;20636;-78
2023/02/10 11:45:26;;;;;;;0.63;0.50;;;9.60;99.90;;;;;;5048208;28;20182;-78
2023/02/10 11:48:15;;;;;;;2.93;2.23;;;9.60;99.90;;;;;;5047998;28;20401;-80
2023/02/10 11:50:40;;;;;;;3.67;1.83;;;9.50;99.90;;;;;;5046180;28;20209;-77
2023/02/10 11:53:18;;;;;;;4.53;2.97;;;9.40;99.90;;;;;;5029911;28;20200;-77
2023/02/10 11:56:02;;;;;;;2.93;1.40;;;9.30;99.90;;;;;;5046269;28;20206;-79
2023/02/10 12:01:39;;;;;;;5.70;2.87;;;9.50;99.90;;;;;;5047902;28;20179;-83
2023/02/10 12:04:41;;;;;;;2.80;1.63;;;9.30;99.90;;;;;;5046258;28;20464;-80
2023/02/10 12:07:34;;;;;;;12.13;0.70;;;9.40;99.90;;;;;;5047942;28;20178;-78
2023/02/10 12:10:10;;;;;;;0.93;0.90;;;9.70;99.90;;;;;;5048115;28;20265;-79
2023/02/10 12:12:52;;;;;;;4.47;1.17;;;9.60;99.90;;;;;;5046344;28;20647;-78
2023/02/10 12:15:24;;;;;;;1.53;1.43;;;9.30;99.90;;;;;;5059554;28;20517;-80
2023/02/10 12:18:08;;;;;;;7.07;1.00;;;9.20;99.90;;;;;;5049458;28;20185;-83
2023/02/10 12:20:37;;;;;;;1.13;1.03;;;9.40;99.90;;;;;;5048801;28;20279;-82
2023/02/10 12:23:50;;;;;;;5.33;0.93;;;9.40;99.90;;;;;;5067968;28;20188;-78
2023/02/10 12:26:41;;;;;;;0.73;0.50;;;9.50;99.90;;;;;;4950095;28;20745;-78
2023/02/10 12:29:37;;;;;;;0.63;0.63;;;9.30;99.90;;;;;;5049687;28;20651;-81
2023/02/10 12:32:21;;;;;;;4.90;1.90;;;9.20;99.90;;;;;;5067471;28;20183;-80
2023/02/10 12:35:29;;;;;;;0.40;0.40;;;9.30;99.90;;;;;;5049803;28;20193;-80
2023/02/10 12:38:17;;;;;;;6.33;1.50;;;9.30;99.90;;;;;;4950078;28;20176;-83
2023/02/10 12:41:01;;;;;;;0.90;0.90;;;9.10;99.90;;;;;;4966404;28;20196;-79
2023/02/10 12:43:48;;;;;;;0.97;0.97;;;9.20;99.90;;;;;;5030638;28;20189;-79
2023/02/10 12:46:45;;;;;;;0.43;0.40;;;9.00;99.90;;;;;;5067216;28;20169;-80
2023/02/10 12:49:31;;;;;;;1.53;0.60;;;9.00;99.90;;;;;;5067255;28;20173;-81
2023/02/10 12:52:18;;;;;;;0.60;0.60;;;9.20;99.90;;;;;;5049731;28;20177;-79
2023/02/10 12:54:57;;;;;;;0.90;0.90;;;9.40;99.90;;;;;;5067338;28;20225;-78
2023/02/10 12:57:43;;;;;;;1.23;0.63;;;9.60;99.90;;;;;;5066959;28;20170;-79
2023/02/10 13:00:29;;;;;;;3.93;1.57;;;9.60;99.90;;;;;;5067318;28;20211;-79
2023/02/10 13:03:01;;;;;;;31.63;2.13;;;9.50;99.90;;;;;;5067655;28;20165;-80
2023/02/10 13:05:49;;;;;;;1.13;0.80;;;9.50;99.90;;;;;;5049525;28;20252;-79
2023/02/10 13:08:24;;;;;;;3.80;0.83;;;9.50;99.90;;;;;;5049405;28;20557;-79
2023/02/10 13:10:57;;;;;;;0.93;0.87;;;9.60;99.90;;;;;;5067065;28;20242;-80
2023/02/10 13:13:27;;;;;;;0.60;0.60;;;9.50;99.90;;;;;;5067545;28;20515;-79
2023/02/10 13:16:00;;;;;;;1.13;0.93;;;9.60;99.90;;;;;;5048734;28;20312;-78